Time;durP1;ratioP1;P1;durP2;ratioP2;P2;SDS_P1;SDS_P2;PMS_P1;PMS_P2;Temp;Humidity;BMP_temperature;BMP_pressure;BME280_temperature;BME280_humidity;BME280_pressure;Samples;Min_cycle;Max_cycle;Signal;HPM_P1;HPM_P2
2022/05/20 00:00:06;;;;;;;;;;;;;;;;;;5081857;28;20492;-74
2022/05/20 00:02:53;;;;;;;;;;;;;;;;;;5083205;28;19919;-75
2022/05/20 00:05:39;;;;;;;;;;;;;;;;;;5088052;28;19919;-76
2022/05/20 00:08:26;;;;;;;;;;;;;;;;;;5086492;28;20646;-75
2022/05/20 00:11:12;;;;;;;;;;;;;;;;;;5089741;28;19908;-76
2022/05/20 00:13:59;;;;;;;;;;;;;;;;;;5085171;28;19912;-76
2022/05/20 00:16:45;;;;;;;;;;;;;;;;;;5079782;28;19914;-76
2022/05/20 00:19:32;;;;;;;;;;;;;;;;;;5090487;28;19918;-76
2022/05/20 00:22:18;;;;;;;;;;;;;;;;;;5089958;28;19935;-76
2022/05/20 00:28:10;;;;;;;;;;;;;;;;;;5090172;28;19924;-76
2022/05/20 00:30:56;;;;;;;;;;;;;;;;;;5092095;28;19983;-76
2022/05/20 00:33:43;;;;;;;;;;;;;;;;;;5103489;28;19916;-76
2022/05/20 00:36:29;;;;;;;;;;;;;;;;;;5092124;28;19920;-75
2022/05/20 00:39:17;;;;;;;;;;;;;;;;;;5096388;28;19934;-75
2022/05/20 00:42:03;;;;;;;;;;;;;;;;;;5092470;28;19916;-74
2022/05/20 00:44:50;;;;;;;;;;;;;;;;;;5089601;28;19912;-75
2022/05/20 00:47:36;;;;;;;;;;;;;;;;;;5092623;28;20375;-75
2022/05/20 00:50:23;;;;;;;;;;;;;;;;;;5099498;28;19923;-80
2022/05/20 00:53:09;;;;;;;;;;;;;;;;;;5092934;28;19958;-75
2022/05/20 00:55:56;;;;;;;;;;;;;;;;;;5090929;28;19920;-75
2022/05/20 00:58:42;;;;;;;;;;;;;;;;;;5089764;28;19912;-75
2022/05/20 01:01:29;;;;;;;;;;;;;;;;;;5090113;28;20103;-75
2022/05/20 01:04:15;;;;;;;;;;;;;;;;;;5089062;28;19935;-75
2022/05/20 01:07:02;;;;;;;;;;;;;;;;;;5090444;28;19927;-75
2022/05/20 01:09:48;;;;;;;;;;;;;;;;;;5098852;28;19919;-75
2022/05/20 01:12:35;;;;;;;;;;;;;;;;;;5090743;28;19939;-75
2022/05/20 01:15:21;;;;;;;;;;;;;;;;;;5081649;28;19916;-75
2022/05/20 01:18:08;;;;;;;;;;;;;;;;;;5083850;28;19924;-75
2022/05/20 01:20:55;;;;;;;;;;;;;;;;;;5090587;28;20045;-77
2022/05/20 01:23:41;;;;;;;;;;;;;;;;;;5090727;28;20371;-78
2022/05/20 01:26:28;;;;;;;;;;;;;;;;;;5096204;28;19920;-76
2022/05/20 01:29:14;;;;;;;;;;;;;;;;;;5087876;28;20342;-76
2022/05/20 01:32:01;;;;;;;;;;;;;;;;;;5085784;28;19918;-77
2022/05/20 01:34:47;;;;;;;;;;;;;;;;;;5088853;28;19919;-77
2022/05/20 01:37:33;;;;;;;;;;;;;;;;;;5084100;28;19916;-77
2022/05/20 01:40:20;;;;;;;;;;;;;;;;;;5088480;28;19919;-77
2022/05/20 01:43:07;;;;;;;;;;;;;;;;;;5088309;28;19912;-77
2022/05/20 01:45:53;;;;;;;;;;;;;;;;;;5083200;28;19923;-77
2022/05/20 01:48:39;;;;;;;;;;;;;;;;;;5084160;28;20002;-77
2022/05/20 01:51:26;;;;;;;;;;;;;;;;;;5087664;28;19908;-76
2022/05/20 01:54:12;;;;;;;;;;;;;;;;;;5087505;28;19915;-76
2022/05/20 01:56:59;;;;;;;;;;;;;;;;;;5077422;28;20299;-76
2022/05/20 01:59:45;;;;;;;;;;;;;;;;;;5085550;28;19908;-75
2022/05/20 02:02:32;;;;;;;;;;;;;;;;;;5097482;28;20275;-75
2022/05/20 02:05:18;;;;;;;;;;;;;;;;;;5093973;28;19923;-76
2022/05/20 02:08:05;;;;;;;;;;;;;;;;;;5094309;28;20287;-76
2022/05/20 02:10:51;;;;;;;;;;;;;;;;;;5088596;28;19908;-77
2022/05/20 02:13:38;;;;;;;;;;;;;;;;;;5103417;28;19912;-75
2022/05/20 02:16:24;;;;;;;;;;;;;;;;;;5098572;27;19912;-75
2022/05/20 02:19:11;;;;;;;;;;;;;;;;;;5089525;28;19912;-76
2022/05/20 02:21:57;;;;;;;;;;;;;;;;;;5086391;28;19919;-74
2022/05/20 02:24:45;;;;;;;;;;;;;;;;;;5086902;28;19939;-75
2022/05/20 02:27:31;;;;;;;;;;;;;;;;;;5080833;28;19943;-74
2022/05/20 02:30:18;;;;;;;;;;;;;;;;;;5085320;28;19952;-75
2022/05/20 02:33:04;;;;;;;;;;;;;;;;;;5083117;28;19923;-75
2022/05/20 02:35:51;;;;;;;;;;;;;;;;;;5087840;28;19919;-74
2022/05/20 02:38:40;;;;;;;;;;;;;;;;;;5089604;28;20285;-76
2022/05/20 02:41:26;;;;;;;;;;;;;;;;;;5080439;28;19931;-76
2022/05/20 02:44:12;;;;;;;;;;;;;;;;;;5088655;28;19919;-75
2022/05/20 02:46:59;;;;;;;;;;;;;;;;;;5088676;28;19933;-75
2022/05/20 02:49:45;;;;;;;;;;;;;;;;;;5087962;28;19912;-75
2022/05/20 02:52:32;;;;;;;;;;;;;;;;;;5086950;28;19918;-76
2022/05/20 02:55:18;;;;;;;;;;;;;;;;;;5083301;28;19912;-76
2022/05/20 02:58:05;;;;;;;;;;;;;;;;;;5094767;28;19916;-76
2022/05/20 03:04:12;;;;;;;;;;;;;;;;;;5085197;28;19916;-76
2022/05/20 03:06:58;;;;;;;;;;;;;;;;;;5081808;28;19920;-76
2022/05/20 03:09:45;;;;;;;;;;;;;;;;;;5083456;28;19908;-76
2022/05/20 03:12:32;;;;;;;;;;;;;;;;;;5086060;28;19943;-76
2022/05/20 03:15:20;;;;;;;;;;;;;;;;;;5086535;28;19920;-77
2022/05/20 03:18:06;;;;;;;;;;;;;;;;;;5085509;28;19908;-79
2022/05/20 03:20:53;;;;;;;;;;;;;;;;;;5097359;28;19931;-80
2022/05/20 03:23:42;;;;;;;;;;;;;;;;;;5082648;28;19919;-79
2022/05/20 03:26:29;;;;;;;;;;;;;;;;;;5075382;28;19917;-77
2022/05/20 03:29:18;;;;;;;;;;;;;;;;;;5078068;28;19927;-79
2022/05/20 03:32:04;;;;;;;;;;;;;;;;;;5085332;28;19916;-76
2022/05/20 03:34:58;;;;;;;;;;;;;;;;;;5085548;28;19914;-80
2022/05/20 03:37:45;;;;;;;;;;;;;;;;;;5081095;28;19912;-79
2022/05/20 03:40:32;;;;;;;;;;;;;;;;;;5087362;28;19923;-77
2022/05/20 03:43:18;;;;;;;;;;;;;;;;;;5081677;28;20292;-76
2022/05/20 03:46:04;;;;;;;;;;;;;;;;;;5083218;28;19912;-77
2022/05/20 03:48:51;;;;;;;;;;;;;;;;;;5086768;28;19912;-76
2022/05/20 03:51:38;;;;;;;;;;;;;;;;;;5086321;28;19927;-77
2022/05/20 03:54:24;;;;;;;;;;;;;;;;;;5095146;28;19916;-77
2022/05/20 03:57:10;;;;;;;;;;;;;;;;;;5093159;28;19908;-76
2022/05/20 03:59:57;;;;;;;;;;;;;;;;;;5082606;28;19908;-77
2022/05/20 04:02:43;;;;;;;;;;;;;;;;;;5084342;28;20382;-77
2022/05/20 04:05:33;;;;;;;;;;;;;;;;;;5089311;28;19912;-79
2022/05/20 04:08:19;;;;;;;;;;;;;;;;;;5102467;28;19938;-77
2022/05/20 04:11:06;;;;;;;;;;;;;;;;;;5086412;28;19913;-78
2022/05/20 04:13:53;;;;;;;;;;;;;;;;;;5083776;28;20407;-78
2022/05/20 04:16:39;;;;;;;;;;;;;;;;;;5088148;28;19918;-77
2022/05/20 04:19:26;;;;;;;;;;;;;;;;;;5082451;28;19912;-77
2022/05/20 04:22:15;;;;;;;;;;;;;;;;;;5087750;28;19919;-78
2022/05/20 04:25:05;;;;;;;;;;;;;;;;;;5072729;28;19950;-77
2022/05/20 04:27:51;;;;;;;;;;;;;;;;;;5090308;28;19927;-77
2022/05/20 04:30:38;;;;;;;;;;;;;;;;;;5089636;28;20515;-76
2022/05/20 04:33:24;;;;;;;;;;;;;;;;;;5084750;28;19987;-77
2022/05/20 04:36:10;;;;;;;;;;;;;;;;;;5090499;28;19920;-76
2022/05/20 04:38:57;;;;;;;;;;;;;;;;;;5089544;28;19908;-76
2022/05/20 04:47:55;;;;;;;;;;;;;;;;;;5082394;28;19928;-76
2022/05/20 04:50:41;;;;;;;;;;;;;;;;;;5085667;28;19919;-79
2022/05/20 04:56:33;;;;;;;;;;;;;;;;;;5088494;28;19920;-78
2022/05/20 04:59:24;;;;;;;;;;;;;;;;;;5090924;28;20418;-78
2022/05/20 05:02:11;;;;;;;;;;;;;;;;;;5097687;28;19908;-77
2022/05/20 05:04:58;;;;;;;;;;;;;;;;;;5076695;28;19942;-77
2022/05/20 05:07:44;;;;;;;;;;;;;;;;;;5084977;28;20410;-77
2022/05/20 05:10:31;;;;;;;;;;;;;;;;;;5089156;28;19919;-77
2022/05/20 05:13:20;;;;;;;;;;;;;;;;;;5089075;28;19913;-78
2022/05/20 05:16:10;;;;;;;;;;;;;;;;;;5085596;28;19993;-77
2022/05/20 05:18:56;;;;;;;;;;;;;;;;;;5079686;28;19915;-77
2022/05/20 05:21:42;;;;;;;;;;;;;;;;;;5075005;28;19908;-77
2022/05/20 05:24:29;;;;;;;;;;;;;;;;;;5088758;28;20577;-78
2022/05/20 05:27:15;;;;;;;;;;;;;;;;;;5088400;28;19920;-78
2022/05/20 05:30:02;;;;;;;;;;;;;;;;;;5090443;28;19927;-77
2022/05/20 05:32:49;;;;;;;;;;;;;;;;;;5089743;28;20390;-78
2022/05/20 05:35:35;;;;;;;;;;;;;;;;;;5097270;28;19908;-78
2022/05/20 05:38:22;;;;;;;;;;;;;;;;;;5099912;28;20288;-77
2022/05/20 05:41:09;;;;;;;;;;;;;;;;;;5090394;28;20292;-77
2022/05/20 05:43:55;;;;;;;;;;;;;;;;;;5090571;28;20379;-77
2022/05/20 05:46:42;;;;;;;;;;;;;;;;;;5108587;27;19916;-78
2022/05/20 05:49:28;;;;;;;;;;;;;;;;;;5086245;28;19912;-77
2022/05/20 05:52:15;;;;;;;;;;;;;;;;;;5088947;28;19916;-77
2022/05/20 05:55:02;;;;;;;;;;;;;;;;;;5089099;28;19920;-76
2022/05/20 05:57:49;;;;;;;;;;;;;;;;;;5082984;28;20375;-76
2022/05/20 06:00:35;;;;;;;;;;;;;;;;;;5086481;28;19913;-76
2022/05/20 06:03:22;;;;;;;;;;;;;;;;;;5081206;28;19919;-76
2022/05/20 06:06:08;;;;;;;;;;;;;;;;;;5085485;28;19919;-76
2022/05/20 06:08:55;;;;;;;;;;;;;;;;;;5090839;28;19928;-75
2022/05/20 06:11:42;;;;;;;;;;;;;;;;;;5088966;28;19919;-76
2022/05/20 06:14:31;;;;;;;;;;;;;;;;;;5085194;28;20454;-78
2022/05/20 06:17:18;;;;;;;;;;;;;;;;;;5086711;28;19912;-76
2022/05/20 06:20:04;;;;;;;;;;;;;;;;;;5087961;28;19916;-76
2022/05/20 06:22:51;;;;;;;;;;;;;;;;;;5087778;28;19919;-75
2022/05/20 06:25:41;;;;;;;;;;;;;;;;;;5085075;28;19916;-77
2022/05/20 06:28:30;;;;;;;;;;;;;;;;;;5088796;28;19927;-77
2022/05/20 06:31:17;;;;;;;;;;;;;;;;;;5089004;28;19923;-78
2022/05/20 06:34:04;;;;;;;;;;;;;;;;;;5085167;28;19913;-77
2022/05/20 06:39:57;;;;;;;;;;;;;;;;;;5083903;28;19927;-78
2022/05/20 06:42:46;;;;;;;;;;;;;;;;;;5084306;28;20388;-78
2022/05/20 06:45:33;;;;;;;;;;;;;;;;;;5089343;28;19912;-79
2022/05/20 06:48:19;;;;;;;;;;;;;;;;;;5085659;28;20629;-79
2022/05/20 06:51:06;;;;;;;;;;;;;;;;;;5082819;28;19918;-78
2022/05/20 06:53:52;;;;;;;;;;;;;;;;;;5085573;28;19908;-79
2022/05/20 06:56:38;;;;;;;;;;;;;;;;;;5092997;28;19919;-79
2022/05/20 06:59:25;;;;;;;;;;;;;;;;;;5085484;28;19923;-78
2022/05/20 07:02:11;;;;;;;;;;;;;;;;;;5087682;28;19919;-79
2022/05/20 07:04:58;;;;;;;;;;;;;;;;;;5086687;28;19908;-79
2022/05/20 07:07:44;;;;;;;;;;;;;;;;;;5086919;28;19924;-78
2022/05/20 07:10:31;;;;;;;;;;;;;;;;;;5087740;28;19912;-78
2022/05/20 07:13:17;;;;;;;;;;;;;;;;;;5087064;28;19919;-79
2022/05/20 07:16:04;;;;;;;;;;;;;;;;;;5087167;28;19915;-78
2022/05/20 07:18:50;;;;;;;;;;;;;;;;;;5088672;28;19912;-78
2022/05/20 07:21:37;;;;;;;;;;;;;;;;;;5088827;28;19919;-79
2022/05/20 07:24:23;;;;;;;;;;;;;;;;;;5088023;28;20291;-79
2022/05/20 07:27:10;;;;;;;;;;;;;;;;;;5084106;28;19927;-77
2022/05/20 07:29:56;;;;;;;;;;;;;;;;;;5086977;28;19970;-79
2022/05/20 07:32:43;;;;;;;;;;;;;;;;;;5101770;28;19912;-78
2022/05/20 07:35:29;;;;;;;;;;;;;;;;;;5095145;28;19930;-79
2022/05/20 07:38:16;;;;;;;;;;;;;;;;;;5097370;28;19916;-77
2022/05/20 07:41:02;;;;;;;;;;;;;;;;;;5082569;28;19909;-77
2022/05/20 07:43:49;;;;;;;;;;;;;;;;;;5104797;28;19912;-77
2022/05/20 07:46:35;;;;;;;;;;;;;;;;;;5104002;28;19926;-77
2022/05/20 07:49:22;;;;;;;;;;;;;;;;;;5096594;28;19908;-76
2022/05/20 07:52:08;;;;;;;;;;;;;;;;;;5094133;28;19919;-77
2022/05/20 07:54:55;;;;;;;;;;;;;;;;;;5084482;28;20632;-77
2022/05/20 07:57:41;;;;;;;;;;;;;;;;;;5088767;28;19916;-77
2022/05/20 08:00:28;;;;;;;;;;;;;;;;;;5096974;28;19912;-77
2022/05/20 08:04:52;;;;;;;;;;;;;;;;;;5078168;28;19912;-77
2022/05/20 08:06:20;;;;;;;;;;;;;;;;;;5090645;28;19912;-77
2022/05/20 08:09:07;;;;;;;;;;;;;;;;;;5085561;28;20029;-76
2022/05/20 08:11:53;;;;;;;;;;;;;;;;;;5088736;28;19908;-76
2022/05/20 08:14:40;;;;;;;;;;;;;;;;;;5104779;28;19915;-77
2022/05/20 08:17:26;;;;;;;;;;;;;;;;;;5085651;28;19914;-76
2022/05/20 08:20:16;;;;;;;;;;;;;;;;;;5088587;28;19923;-77
2022/05/20 08:23:02;;;;;;;;;;;;;;;;;;5091554;28;19919;-76
2022/05/20 08:25:49;;;;;;;;;;;;;;;;;;5096745;28;19930;-77
2022/05/20 08:28:35;;;;;;;;;;;;;;;;;;5086000;28;20395;-77
2022/05/20 08:31:22;;;;;;;;;;;;;;;;;;5087228;28;19912;-76
2022/05/20 08:34:09;;;;;;;;;;;;;;;;;;5091263;28;19913;-76
2022/05/20 08:36:55;;;;;;;;;;;;;;;;;;5088845;28;19931;-76
2022/05/20 08:39:42;;;;;;;;;;;;;;;;;;5089476;28;19912;-77
2022/05/20 08:42:28;;;;;;;;;;;;;;;;;;5086033;28;19915;-77
2022/05/20 08:45:15;;;;;;;;;;;;;;;;;;5113264;27;20545;-76
2022/05/20 08:48:04;;;;;;;;;;;;;;;;;;5086272;28;19927;-76
2022/05/20 08:50:50;;;;;;;;;;;;;;;;;;5087807;28;19923;-77
2022/05/20 08:53:37;;;;;;;;;;;;;;;;;;5080219;28;20345;-76
2022/05/20 08:56:23;;;;;;;;;;;;;;;;;;5088761;28;19914;-76
2022/05/20 08:59:10;;;;;;;;;;;;;;;;;;5089644;28;20378;-77
2022/05/20 09:01:56;;;;;;;;;;;;;;;;;;5089689;28;19923;-76
2022/05/20 09:04:43;;;;;;;;;;;;;;;;;;5090606;28;20291;-76
2022/05/20 09:07:29;;;;;;;;;;;;;;;;;;5089065;28;20539;-76
2022/05/20 09:10:16;;;;;;;;;;;;;;;;;;5093670;28;19916;-76
2022/05/20 09:13:02;;;;;;;;;;;;;;;;;;5085531;28;19908;-77
2022/05/20 09:15:49;;;;;;;;;;;;;;;;;;5089374;28;20306;-78
2022/05/20 09:18:36;;;;;;;;;;;;;;;;;;5090165;28;19986;-76
2022/05/20 09:21:23;;;;;;;;;;;;;;;;;;5089588;28;20274;-77
2022/05/20 09:24:09;;;;;;;;;;;;;;;;;;5084268;28;19908;-76
2022/05/20 09:26:56;;;;;;;;;;;;;;;;;;5091221;28;19916;-76
2022/05/20 09:29:42;;;;;;;;;;;;;;;;;;5092324;28;20412;-76
2022/05/20 09:32:29;;;;;;;;;;;;;;;;;;5064664;28;19908;-77
2022/05/20 09:35:15;;;;;;;;;;;;;;;;;;5087834;28;19920;-77
2022/05/20 09:38:01;;;;;;;;;;;;;;;;;;5092372;28;20394;-78
2022/05/20 09:40:48;;;;;;;;;;;;;;;;;;5085511;28;19909;-76
2022/05/20 09:43:35;;;;;;;;;;;;;;;;;;5084967;28;20154;-76
2022/05/20 09:46:21;;;;;;;;;;;;;;;;;;5090581;28;20386;-76
2022/05/20 09:49:08;;;;;;;;;;;;;;;;;;5090978;28;19920;-77
2022/05/20 09:51:55;;;;;;;;;;;;;;;;;;5085580;28;20378;-77
2022/05/20 09:54:41;;;;;;;;;;;;;;;;;;5089547;28;20387;-77
2022/05/20 09:57:27;;;;;;;;;;;;;;;;;;5088821;28;19912;-77
2022/05/20 10:00:14;;;;;;;;;;;;;;;;;;5090262;28;19915;-77
2022/05/20 10:03:00;;;;;;;;;;;;;;;;;;5101052;28;19908;-77
2022/05/20 10:05:47;;;;;;;;;;;;;;;;;;5102328;28;19915;-77
2022/05/20 10:08:34;;;;;;;;;;;;;;;;;;5090173;28;20511;-77
2022/05/20 10:11:20;;;;;;;;;;;;;;;;;;5085607;28;19912;-77
2022/05/20 10:14:07;;;;;;;;;;;;;;;;;;5090026;28;19928;-77
2022/05/20 10:16:53;;;;;;;;;;;;;;;;;;5082274;28;19919;-77
2022/05/20 10:19:40;;;;;;;;;;;;;;;;;;5088235;28;20330;-77
2022/05/20 10:22:26;;;;;;;;;;;;;;;;;;5078345;28;19915;-77
2022/05/20 10:25:13;;;;;;;;;;;;;;;;;;5088621;28;20299;-77
2022/05/20 10:27:59;;;;;;;;;;;;;;;;;;5087071;28;20290;-78
2022/05/20 10:33:51;;;;;;;;;;;;;;;;;;5087818;28;20290;-77
2022/05/20 10:36:38;;;;;;;;;;;;;;;;;;5086770;28;19954;-78
2022/05/20 10:39:24;;;;;;;;;;;;;;;;;;5082677;28;20023;-77
2022/05/20 10:42:11;;;;;;;;;;;;;;;;;;5088315;28;19912;-77
2022/05/20 10:51:08;;;;;;;;;;;;;;;;;;5085707;28;19919;-78
2022/05/20 10:53:54;;;;;;;;;;;;;;;;;;5085819;28;19916;-77
2022/05/20 10:56:41;;;;;;;;;;;;;;;;;;5088450;28;19919;-77
2022/05/20 10:59:27;;;;;;;;;;;;;;;;;;5082607;28;19920;-77
2022/05/20 11:02:14;;;;;;;;;;;;;;;;;;5084017;28;19913;-76
2022/05/20 11:05:00;;;;;;;;;;;;;;;;;;5069241;28;19916;-77
2022/05/20 11:07:47;;;;;;;;;;;;;;;;;;5084861;28;19920;-77
2022/05/20 11:10:34;;;;;;;;;;;;;;;;;;5090933;28;19923;-77
2022/05/20 11:13:20;;;;;;;;;;;;;;;;;;5091398;28;19923;-77
2022/05/20 11:16:07;;;;;;;;;;;;;;;;;;5091144;28;20249;-77
2022/05/20 11:18:53;;;;;;;;;;;;;;;;;;5088942;28;19916;-77
2022/05/20 11:21:40;;;;;;;;;;;;;;;;;;5097354;28;20431;-77
2022/05/20 11:24:26;;;;;;;;;;;;;;;;;;5084369;28;19919;-77
2022/05/20 11:27:13;;;;;;;;;;;;;;;;;;5089161;28;19912;-76
2022/05/20 11:30:00;;;;;;;;;;;;;;;;;;5084613;28;19934;-78
2022/05/20 11:32:47;;;;;;;;;;;;;;;;;;5092147;28;19913;-76
2022/05/20 11:35:35;;;;;;;;;;;;;;;;;;5089717;28;19939;-77
2022/05/20 11:38:22;;;;;;;;;;;;;;;;;;5093649;28;19912;-77
2022/05/20 11:41:08;;;;;;;;;;;;;;;;;;5091976;28;20387;-79
2022/05/20 11:43:55;;;;;;;;;;;;;;;;;;5092218;28;20435;-77
2022/05/20 11:46:42;;;;;;;;;;;;;;;;;;5089237;28;20368;-77
2022/05/20 11:49:28;;;;;;;;;;;;;;;;;;5087395;28;19927;-77
2022/05/20 11:52:15;;;;;;;;;;;;;;;;;;5084297;28;19915;-77
2022/05/20 11:55:01;;;;;;;;;;;;;;;;;;5091560;28;19914;-77
2022/05/20 11:57:48;;;;;;;;;;;;;;;;;;5089799;28;19918;-77
2022/05/20 12:00:34;;;;;;;;;;;;;;;;;;5092264;28;19935;-76
2022/05/20 12:03:21;;;;;;;;;;;;;;;;;;5087294;28;20390;-77
2022/05/20 12:06:07;;;;;;;;;;;;;;;;;;5093718;28;19919;-76
2022/05/20 12:08:54;;;;;;;;;;;;;;;;;;5089894;28;19943;-77
2022/05/20 12:11:41;;;;;;;;;;;;;;;;;;5095528;28;19926;-77
2022/05/20 12:14:27;;;;;;;;;;;;;;;;;;5090928;28;20283;-77
2022/05/20 12:17:13;;;;;;;;;;;;;;;;;;5086041;28;19912;-77
2022/05/20 12:24:11;;;;;;;;;;;;;;;;;;5088022;28;20360;-77
2022/05/20 12:26:30;;;;;;;;;;;;;;;;;;5091294;28;19923;-76
2022/05/20 12:29:16;;;;;;;;;;;;;;;;;;5099526;28;19924;-77
2022/05/20 12:32:03;;;;;;;;;;;;;;;;;;5092588;28;19912;-76
2022/05/20 12:34:52;;;;;;;;;;;;;;;;;;5090231;28;19914;-78
2022/05/20 12:37:39;;;;;;;;;;;;;;;;;;5092281;28;19922;-78
2022/05/20 12:40:25;;;;;;;;;;;;;;;;;;5097246;28;19939;-76
2022/05/20 12:43:12;;;;;;;;;;;;;;;;;;5095396;28;19912;-76
2022/05/20 12:45:58;;;;;;;;;;;;;;;;;;5086198;28;19928;-77
2022/05/20 12:48:45;;;;;;;;;;;;;;;;;;5098426;28;20491;-78
2022/05/20 12:51:32;;;;;;;;;;;;;;;;;;5093439;28;19920;-76
2022/05/20 12:54:18;;;;;;;;;;;;;;;;;;5089131;28;19959;-76
2022/05/20 12:57:05;;;;;;;;;;;;;;;;;;5096292;28;19916;-77
2022/05/20 12:59:51;;;;;;;;;;;;;;;;;;5089357;28;19998;-77
2022/05/20 13:02:38;;;;;;;;;;;;;;;;;;5095616;28;19911;-77
2022/05/20 13:05:24;;;;;;;;;;;;;;;;;;5088453;28;19919;-77
2022/05/20 13:08:14;;;;;;;;;;;;;;;;;;5086461;28;19918;-77
2022/05/20 13:11:00;;;;;;;;;;;;;;;;;;5086267;28;19939;-77
2022/05/20 13:13:47;;;;;;;;;;;;;;;;;;5082941;28;19916;-77
2022/05/20 13:16:33;;;;;;;;;;;;;;;;;;5075796;28;19934;-76
2022/05/20 13:19:20;;;;;;;;;;;;;;;;;;5091306;28;19912;-77
2022/05/20 13:22:06;;;;;;;;;;;;;;;;;;5092318;28;19919;-77
2022/05/20 13:24:53;;;;;;;;;;;;;;;;;;5076011;28;19920;-76
2022/05/20 13:27:40;;;;;;;;;;;;;;;;;;5077304;28;19929;-78
2022/05/20 13:30:26;;;;;;;;;;;;;;;;;;5083646;28;19924;-77
2022/05/20 13:33:13;;;;;;;;;;;;;;;;;;5079893;28;19912;-77
2022/05/20 13:36:01;;;;;;;;;;;;;;;;;;5089838;28;20401;-77
2022/05/20 13:38:50;;;;;;;;;;;;;;;;;;5089872;28;20318;-77
2022/05/20 13:41:37;;;;;;;;;;;;;;;;;;5105621;28;20271;-76
2022/05/20 13:44:23;;;;;;;;;;;;;;;;;;5091680;28;19918;-78
2022/05/20 13:50:16;;;;;;;;;;;;;;;;;;5089477;28;19920;-77
2022/05/20 13:53:04;;;;;;;;;;;;;;;;;;5086921;28;19912;-77
2022/05/20 13:55:50;;;;;;;;;;;;;;;;;;5088867;28;19919;-77
2022/05/20 13:58:37;;;;;;;;;;;;;;;;;;5084565;28;19916;-78
2022/05/20 14:01:23;;;;;;;;;;;;;;;;;;5087769;28;19908;-78
2022/05/20 14:04:10;;;;;;;;;;;;;;;;;;5087318;28;19915;-78
2022/05/20 14:06:56;;;;;;;;;;;;;;;;;;5085762;28;19911;-79
2022/05/20 14:09:43;;;;;;;;;;;;;;;;;;5085924;28;19924;-78
2022/05/20 14:12:32;;;;;;;;;;;;;;;;;;5096538;28;19908;-78
2022/05/20 14:15:19;;;;;;;;;;;;;;;;;;5089339;28;19992;-77
2022/05/20 14:18:05;;;;;;;;;;;;;;;;;;5085735;28;19915;-78
2022/05/20 14:20:52;;;;;;;;;;;;;;;;;;5078942;28;19915;-77
2022/05/20 14:23:38;;;;;;;;;;;;;;;;;;5099073;28;19908;-77
2022/05/20 14:26:25;;;;;;;;;;;;;;;;;;5101281;28;19915;-77
2022/05/20 14:29:11;;;;;;;;;;;;;;;;;;5090050;28;19962;-77
2022/05/20 14:31:58;;;;;;;;;;;;;;;;;;5092415;28;19959;-77
2022/05/20 14:34:44;;;;;;;;;;;;;;;;;;5079390;28;19927;-78
2022/05/20 14:37:33;;;;;;;;;;;;;;;;;;5088834;28;19931;-79
2022/05/20 14:40:20;;;;;;;;;;;;;;;;;;5091226;28;19912;-77
2022/05/20 14:43:06;;;;;;;;;;;;;;;;;;5088740;28;19914;-77
2022/05/20 14:45:53;;;;;;;;;;;;;;;;;;5087978;28;19912;-76
2022/05/20 14:48:39;;;;;;;;;;;;;;;;;;5083732;28;19928;-77
2022/05/20 14:51:26;;;;;;;;;;;;;;;;;;5077043;28;19912;-77
2022/05/20 14:54:12;;;;;;;;;;;;;;;;;;5088952;28;20315;-77
2022/05/20 14:56:58;;;;;;;;;;;;;;;;;;5094481;28;19922;-75
2022/05/20 14:59:45;;;;;;;;;;;;;;;;;;5087809;28;19916;-76
2022/05/20 15:02:31;;;;;;;;;;;;;;;;;;5090648;28;19916;-76
2022/05/20 15:05:18;;;;;;;;;;;;;;;;;;5101154;28;20449;-76
2022/05/20 15:08:05;;;;;;;;;;;;;;;;;;5089894;28;20318;-76
2022/05/20 15:10:51;;;;;;;;;;;;;;;;;;5078947;28;19922;-76
2022/05/20 15:13:38;;;;;;;;;;;;;;;;;;5083846;28;19920;-76
2022/05/20 15:16:24;;;;;;;;;;;;;;;;;;5085547;28;19916;-76
2022/05/20 15:19:11;;;;;;;;;;;;;;;;;;5083778;28;19912;-76
2022/05/20 15:21:58;;;;;;;;;;;;;;;;;;5088589;28;19922;-77
2022/05/20 15:24:45;;;;;;;;;;;;;;;;;;5088647;28;19912;-76
2022/05/20 15:27:32;;;;;;;;;;;;;;;;;;5081568;28;19919;-77
2022/05/20 15:30:18;;;;;;;;;;;;;;;;;;5088589;28;19927;-77
2022/05/20 15:36:10;;;;;;;;;;;;;;;;;;5088101;28;20302;-77
2022/05/20 15:38:56;;;;;;;;;;;;;;;;;;5088461;28;20067;-77
2022/05/20 15:41:43;;;;;;;;;;;;;;;;;;5100695;28;20398;-77
2022/05/20 15:44:30;;;;;;;;;;;;;;;;;;5093121;28;19912;-77
2022/05/20 15:47:17;;;;;;;;;;;;;;;;;;5083876;28;19912;-76
2022/05/20 15:50:03;;;;;;;;;;;;;;;;;;5088710;28;19927;-77
2022/05/20 15:52:50;;;;;;;;;;;;;;;;;;5090479;28;19916;-78
2022/05/20 15:55:37;;;;;;;;;;;;;;;;;;5101426;28;19908;-77
2022/05/20 15:58:26;;;;;;;;;;;;;;;;;;5085581;28;19908;-77
2022/05/20 16:01:12;;;;;;;;;;;;;;;;;;5091861;28;20366;-76
2022/05/20 16:04:00;;;;;;;;;;;;;;;;;;5090246;28;19914;-77
2022/05/20 16:06:48;;;;;;;;;;;;;;;;;;5086315;28;19914;-77
2022/05/20 16:09:35;;;;;;;;;;;;;;;;;;5085747;28;19920;-75
2022/05/20 16:12:21;;;;;;;;;;;;;;;;;;5090644;28;20283;-78
2022/05/20 16:15:08;;;;;;;;;;;;;;;;;;5091520;28;19927;-78
2022/05/20 16:17:54;;;;;;;;;;;;;;;;;;5092317;28;19908;-76
2022/05/20 16:20:41;;;;;;;;;;;;;;;;;;5083531;28;19919;-76
2022/05/20 16:23:27;;;;;;;;;;;;;;;;;;5086207;28;19919;-76
2022/05/20 16:26:16;;;;;;;;;;;;;;;;;;5088190;28;19912;-75
2022/05/20 16:29:02;;;;;;;;;;;;;;;;;;5099607;28;19924;-75
2022/05/20 16:31:49;;;;;;;;;;;;;;;;;;5089197;28;20386;-76
2022/05/20 16:34:35;;;;;;;;;;;;;;;;;;5084898;28;19919;-76
2022/05/20 16:37:21;;;;;;;;;;;;;;;;;;5088281;28;19908;-77
2022/05/20 16:40:09;;;;;;;;;;;;;;;;;;5090583;28;19919;-76
2022/05/20 16:42:55;;;;;;;;;;;;;;;;;;5090593;28;19923;-77
2022/05/20 16:45:42;;;;;;;;;;;;;;;;;;5103275;28;19923;-77
2022/05/20 16:48:29;;;;;;;;;;;;;;;;;;5078224;28;19927;-77
2022/05/20 16:51:15;;;;;;;;;;;;;;;;;;5081926;28;19923;-78
2022/05/20 16:54:02;;;;;;;;;;;;;;;;;;5091757;28;19927;-78
2022/05/20 17:02:58;;;;;;;;;;;;;;;;;;5084637;28;20466;-77
2022/05/20 17:05:45;;;;;;;;;;;;;;;;;;5090557;28;20403;-78
2022/05/20 17:08:31;;;;;;;;;;;;;;;;;;5080771;28;19922;-78
2022/05/20 17:11:18;;;;;;;;;;;;;;;;;;5090926;28;19926;-77
2022/05/20 17:14:09;;;;;;;;;;;;;;;;;;5088612;28;19912;-79
2022/05/20 17:16:55;;;;;;;;;;;;;;;;;;5078435;28;19908;-78
2022/05/20 17:19:42;;;;;;;;;;;;;;;;;;5088293;28;19908;-79
2022/05/20 17:25:34;;;;;;;;;;;;;;;;;;5082380;28;20276;-77
2022/05/20 17:28:20;;;;;;;;;;;;;;;;;;5078883;28;19925;-77
2022/05/20 17:31:08;;;;;;;;;;;;;;;;;;5066971;28;20372;-78
2022/05/20 17:33:54;;;;;;;;;;;;;;;;;;5068769;28;19916;-78
2022/05/20 17:36:41;;;;;;;;;;;;;;;;;;5065887;28;19916;-77
2022/05/20 17:39:27;;;;;;;;;;;;;;;;;;5071533;28;19912;-78
2022/05/20 17:42:14;;;;;;;;;;;;;;;;;;5069934;28;19913;-78
2022/05/20 17:45:00;;;;;;;;;;;;;;;;;;5053373;28;19916;-78
2022/05/20 17:47:48;;;;;;;;;;;;;;;;;;5079088;28;19919;-78
2022/05/20 17:50:35;;;;;;;;;;;;;;;;;;5056968;28;19916;-78
2022/05/20 17:53:22;;;;;;;;;;;;;;;;;;5067269;28;19908;-78
2022/05/20 17:56:08;;;;;;;;;;;;;;;;;;5065861;28;19913;-76
2022/05/20 17:58:55;;;;;;;;;;;;;;;;;;5068314;28;19912;-79
2022/05/20 18:01:41;;;;;;;;;;;;;;;;;;5060344;28;19920;-78
2022/05/20 18:04:28;;;;;;;;;;;;;;;;;;5071549;28;19913;-78
2022/05/20 18:07:14;;;;;;;;;;;;;;;;;;5085309;28;19919;-77
2022/05/20 18:10:01;;;;;;;;;;;;;;;;;;5067837;28;19927;-78
2022/05/20 18:12:47;;;;;;;;;;;;;;;;;;5072608;28;19916;-79
2022/05/20 18:15:36;;;;;;;;;;;;;;;;;;5066531;28;19920;-77
2022/05/20 18:18:23;;;;;;;;;;;;;;;;;;5060035;28;19924;-75
2022/05/20 18:21:09;;;;;;;;;;;;;;;;;;5065939;28;19920;-76
2022/05/20 18:23:56;;;;;;;;;;;;;;;;;;5063720;28;19943;-76
2022/05/20 18:26:42;;;;;;;;;;;;;;;;;;5073999;28;19919;-78
2022/05/20 18:29:29;;;;;;;;;;;;;;;;;;5063694;28;19928;-77
2022/05/20 18:32:15;;;;;;;;;;;;;;;;;;5059414;28;19913;-82
2022/05/20 18:41:12;;;;;;;;;;;;;;;;;;5067613;28;20418;-79
2022/05/20 18:43:59;;;;;;;;;;;;;;;;;;5061284;28;19912;-79
2022/05/20 18:46:45;;;;;;;;;;;;;;;;;;5062871;28;19924;-76
2022/05/20 18:49:32;;;;;;;;;;;;;;;;;;5066073;28;20367;-77
2022/05/20 18:52:18;;;;;;;;;;;;;;;;;;5066269;28;19923;-77
2022/05/20 18:55:05;;;;;;;;;;;;;;;;;;5063986;28;19916;-77
2022/05/20 18:57:51;;;;;;;;;;;;;;;;;;5066524;28;20291;-77
2022/05/20 19:00:39;;;;;;;;;;;;;;;;;;5070034;28;19922;-76
2022/05/20 19:03:44;;;;;;;;;;;;;;;;;;5064978;28;19912;-76
2022/05/20 19:06:30;;;;;;;;;;;;;;;;;;5065488;28;19934;-77
2022/05/20 19:09:17;;;;;;;;;;;;;;;;;;5069868;28;19927;-77
2022/05/20 19:12:05;;;;;;;;;;;;;;;;;;5064046;28;20355;-77
2022/05/20 19:14:52;;;;;;;;;;;;;;;;;;5059856;28;19913;-75
2022/05/20 19:17:40;;;;;;;;;;;;;;;;;;5067037;28;19923;-77
2022/05/20 19:20:27;;;;;;;;;;;;;;;;;;5064910;28;19931;-75
2022/05/20 19:23:13;;;;;;;;;;;;;;;;;;5068870;28;19909;-77
2022/05/20 19:26:02;;;;;;;;;;;;;;;;;;5069433;28;19919;-75
2022/05/20 19:28:49;;;;;;;;;;;;;;;;;;5079030;28;20354;-80
2022/05/20 19:31:36;;;;;;;;;;;;;;;;;;5085637;28;19908;-76
2022/05/20 19:34:22;;;;;;;;;;;;;;;;;;5065756;28;19919;-76
2022/05/20 19:37:11;;;;;;;;;;;;;;;;;;5064640;28;19912;-76
2022/05/20 19:39:58;;;;;;;;;;;;;;;;;;5059737;28;19913;-77
2022/05/20 19:42:45;;;;;;;;;;;;;;;;;;5070702;28;19919;-77
2022/05/20 19:45:32;;;;;;;;;;;;;;;;;;5072379;28;19915;-77
2022/05/20 19:48:18;;;;;;;;;;;;;;;;;;5074013;28;20653;-78
2022/05/20 19:51:05;;;;;;;;;;;;;;;;;;5071747;28;19928;-78